Time;durP1;ratioP1;P1;durP2;ratioP2;P2;SDS_P1;SDS_P2;PMS_P1;PMS_P2;Temp;Humidity;BMP_temperature;BMP_pressure;BME280_temperature;BME280_humidity;BME280_pressure;Samples;Min_cycle;Max_cycle;Signal;HPM_P1;HPM_P2
2024/01/18 00:01:31;;;;;;;6.05;4.53;;;;;;;;;;6290539;27;21365;-76
2024/01/18 00:04:33;;;;;;;9.23;5.00;;;;;;;;;;6254623;27;20526;-78
2024/01/18 00:07:35;;;;;;;8.40;4.18;;;;;;;;;;6271575;27;20728;-76
2024/01/18 00:10:38;;;;;;;7.45;4.82;;;;;;;;;;6271762;28;20045;-76
2024/01/18 00:13:40;;;;;;;6.00;4.03;;;;;;;;;;6254167;28;20041;-76
2024/01/18 00:16:42;;;;;;;6.72;3.95;;;;;;;;;;6273444;27;20494;-76
2024/01/18 00:19:45;;;;;;;6.70;4.88;;;;;;;;;;6287371;27;20222;-77
2024/01/18 00:22:47;;;;;;;7.50;4.35;;;;;;;;;;6291452;27;20042;-77
2024/01/18 00:25:50;;;;;;;5.55;4.05;;;;;;;;;;6266970;27;20045;-76
2024/01/18 00:28:53;;;;;;;7.00;4.70;;;;;;;;;;6321922;27;20882;-76
2024/01/18 00:31:55;;;;;;;6.03;3.83;;;;;;;;;;6267571;27;20061;-75
2024/01/18 00:34:57;;;;;;;8.35;5.28;;;;;;;;;;6271324;27;20052;-76
2024/01/18 00:38:00;;;;;;;9.93;6.32;;;;;;;;;;6270948;27;20109;-76
2024/01/18 00:41:02;;;;;;;6.78;4.55;;;;;;;;;;6262376;27;20047;-76
2024/01/18 00:44:04;;;;;;;7.20;4.68;;;;;;;;;;6227609;27;20057;-76
2024/01/18 00:47:06;;;;;;;6.47;4.43;;;;;;;;;;6249187;27;20048;-75
2024/01/18 00:50:09;;;;;;;7.30;4.97;;;;;;;;;;6254777;27;20149;-75
2024/01/18 00:53:11;;;;;;;9.07;4.80;;;;;;;;;;6238876;28;20041;-76
2024/01/18 00:56:13;;;;;;;9.43;4.07;;;;;;;;;;6303063;27;20045;-75
2024/01/18 00:59:15;;;;;;;7.93;4.82;;;;;;;;;;6256873;28;20562;-76
2024/01/18 01:02:18;;;;;;;8.27;5.00;;;;;;;;;;6234900;27;20901;-76
2024/01/18 01:05:20;;;;;;;9.82;5.63;;;;;;;;;;6219889;27;20044;-76
2024/01/18 01:08:22;;;;;;;8.60;5.10;;;;;;;;;;6269757;27;20196;-76
2024/01/18 01:11:25;;;;;;;8.57;5.50;;;;;;;;;;6256145;27;20049;-76
2024/01/18 01:14:27;;;;;;;7.88;5.72;;;;;;;;;;6275411;27;20543;-75
2024/01/18 01:17:29;;;;;;;8.05;5.35;;;;;;;;;;6242713;27;20049;-76
2024/01/18 01:20:31;;;;;;;9.80;5.97;;;;;;;;;;6279218;27;20042;-75
2024/01/18 01:23:38;;;;;;;12.15;6.53;;;;;;;;;;6322422;27;20119;-76
2024/01/18 01:26:41;;;;;;;7.72;6.07;;;;;;;;;;6230978;28;20038;-76
2024/01/18 01:29:43;;;;;;;9.02;5.38;;;;;;;;;;6290149;27;20033;-76
2024/01/18 01:32:45;;;;;;;11.00;6.47;;;;;;;;;;6240099;27;20081;-76
2024/01/18 01:35:47;;;;;;;10.80;7.05;;;;;;;;;;6248062;27;20052;-76
2024/01/18 01:38:49;;;;;;;10.80;7.53;;;;;;;;;;6268316;27;20066;-75
2024/01/18 01:41:51;;;;;;;11.38;7.10;;;;;;;;;;6250657;27;20052;-76
2024/01/18 01:44:54;;;;;;;9.57;6.13;;;;;;;;;;6310044;27;20836;-76
2024/01/18 01:47:58;;;;;;;12.50;7.38;;;;;;;;;;6248405;27;20236;-77
2024/01/18 01:51:00;;;;;;;10.45;6.40;;;;;;;;;;6225226;28;20056;-77
2024/01/18 01:54:04;;;;;;;8.80;5.53;;;;;;;;;;6250245;27;20468;-76
2024/01/18 01:57:06;;;;;;;10.98;7.00;;;;;;;;;;6213480;28;20857;-78
2024/01/18 02:00:09;;;;;;;11.15;7.45;;;;;;;;;;6243376;28;20071;-77
2024/01/18 02:03:11;;;;;;;9.00;6.30;;;;;;;;;;6249317;27;20507;-79
2024/01/18 02:06:15;;;;;;;10.35;7.13;;;;;;;;;;6233364;27;20132;-77
2024/01/18 02:09:18;;;;;;;8.80;6.00;;;;;;;;;;6250767;27;20041;-76
2024/01/18 02:12:23;;;;;;;9.95;6.00;;;;;;;;;;6245917;27;20050;-77
2024/01/18 02:15:27;;;;;;;10.25;6.47;;;;;;;;;;6266980;27;20057;-77
2024/01/18 02:18:42;;;;;;;9.85;6.15;;;;;;;;;;6269240;27;20049;-77
2024/01/18 02:21:45;;;;;;;9.32;4.72;;;;;;;;;;6241759;27;20775;-78
2024/01/18 02:24:51;;;;;;;11.23;6.05;;;;;;;;;;6209634;27;20132;-78
2024/01/18 02:27:55;;;;;;;8.65;6.00;;;;;;;;;;6255235;28;20439;-78
2024/01/18 02:30:57;;;;;;;8.02;6.20;;;;;;;;;;6303635;27;20050;-78
2024/01/18 02:34:00;;;;;;;6.75;5.00;;;;;;;;;;6258015;27;20054;-78
2024/01/18 02:37:08;;;;;;;10.57;5.95;;;;;;;;;;6229858;27;20052;-77
2024/01/18 02:40:11;;;;;;;7.32;5.18;;;;;;;;;;6283934;27;20038;-77
2024/01/18 02:43:14;;;;;;;7.90;5.68;;;;;;;;;;6292894;27;20053;-76
2024/01/18 02:46:20;;;;;;;7.55;4.85;;;;;;;;;;6253132;27;20049;-76
2024/01/18 02:49:24;;;;;;;7.65;4.78;;;;;;;;;;6250541;27;21267;-76
2024/01/18 02:52:28;;;;;;;10.95;6.43;;;;;;;;;;6257446;27;20232;-76
2024/01/18 02:55:30;;;;;;;8.23;5.28;;;;;;;;;;6237893;27;20045;-76
2024/01/18 02:58:33;;;;;;;7.80;5.43;;;;;;;;;;6283354;27;20054;-76
2024/01/18 03:01:35;;;;;;;7.43;5.30;;;;;;;;;;6246046;27;20053;-77
2024/01/18 03:04:38;;;;;;;9.38;4.85;;;;;;;;;;6235927;27;20049;-76
2024/01/18 03:07:40;;;;;;;7.65;5.40;;;;;;;;;;6233804;28;20048;-76
2024/01/18 03:10:42;;;;;;;7.10;4.65;;;;;;;;;;6209740;28;20535;-77
2024/01/18 03:13:44;;;;;;;7.97;5.63;;;;;;;;;;6226158;27;20048;-76
2024/01/18 03:16:46;;;;;;;8.10;5.53;;;;;;;;;;6240578;28;20048;-77
2024/01/18 03:19:49;;;;;;;9.05;5.50;;;;;;;;;;6248525;27;20114;-77
2024/01/18 03:22:51;;;;;;;7.32;5.00;;;;;;;;;;6219004;28;20040;-76
2024/01/18 03:25:53;;;;;;;9.00;7.30;;;;;;;;;;6244683;27;20055;-75
2024/01/18 03:28:56;;;;;;;9.35;6.18;;;;;;;;;;6229486;27;20088;-75
2024/01/18 03:31:58;;;;;;;8.57;5.43;;;;;;;;;;6222924;28;20040;-80
2024/01/18 03:35:00;;;;;;;8.30;6.00;;;;;;;;;;6277891;27;20050;-76
2024/01/18 03:38:02;;;;;;;8.50;5.97;;;;;;;;;;6253029;28;20554;-75
2024/01/18 03:41:04;;;;;;;9.30;4.95;;;;;;;;;;6264832;27;20124;-75
2024/01/18 03:44:06;;;;;;;7.53;5.10;;;;;;;;;;6236504;28;20049;-74
2024/01/18 03:47:08;;;;;;;9.60;5.95;;;;;;;;;;6261942;27;20522;-74
2024/01/18 03:50:10;;;;;;;7.15;5.25;;;;;;;;;;6241144;27;20038;-75
2024/01/18 03:53:12;;;;;;;9.73;4.78;;;;;;;;;;6235576;28;20045;-76
2024/01/18 03:56:14;;;;;;;8.63;5.20;;;;;;;;;;6254013;27;20045;-75
2024/01/18 03:59:18;;;;;;;9.00;5.47;;;;;;;;;;6236669;28;20049;-74
2024/01/18 04:02:21;;;;;;;8.38;6.10;;;;;;;;;;6255808;27;20759;-75
2024/01/18 04:05:23;;;;;;;6.72;4.57;;;;;;;;;;6267747;27;20040;-75
2024/01/18 04:08:25;;;;;;;6.30;4.47;;;;;;;;;;6251784;27;20582;-75
2024/01/18 04:11:27;;;;;;;9.27;5.28;;;;;;;;;;6262015;27;20037;-76
2024/01/18 04:14:29;;;;;;;6.90;4.28;;;;;;;;;;6237283;28;20065;-76
2024/01/18 04:17:31;;;;;;;6.93;4.93;;;;;;;;;;6251913;27;20613;-76
2024/01/18 04:20:34;;;;;;;6.93;4.03;;;;;;;;;;6259699;27;20135;-76
2024/01/18 04:23:36;;;;;;;7.95;3.70;;;;;;;;;;6283657;27;20153;-76
2024/01/18 04:26:39;;;;;;;7.07;3.97;;;;;;;;;;6254662;27;20048;-76
2024/01/18 04:29:42;;;;;;;5.43;3.65;;;;;;;;;;6250046;27;20044;-76
2024/01/18 04:32:45;;;;;;;6.95;4.45;;;;;;;;;;6284671;27;20045;-76
2024/01/18 04:35:47;;;;;;;7.10;4.43;;;;;;;;;;6260324;27;20538;-76
2024/01/18 04:38:51;;;;;;;6.13;4.10;;;;;;;;;;6240789;27;20132;-76
2024/01/18 04:41:53;;;;;;;7.70;5.75;;;;;;;;;;6279147;27;20045;-76
2024/01/18 04:44:55;;;;;;;11.45;5.95;;;;;;;;;;6257762;27;20103;-76
2024/01/18 04:47:58;;;;;;;9.88;5.55;;;;;;;;;;6246583;27;20056;-77
2024/01/18 04:51:00;;;;;;;6.90;4.75;;;;;;;;;;6233428;27;20722;-77
2024/01/18 04:54:03;;;;;;;9.85;4.93;;;;;;;;;;6251697;27;20064;-76
2024/01/18 04:57:06;;;;;;;8.07;5.07;;;;;;;;;;6260084;27;20045;-75
2024/01/18 05:00:12;;;;;;;7.60;5.15;;;;;;;;;;6253415;28;20140;-76
2024/01/18 05:03:14;;;;;;;8.65;5.50;;;;;;;;;;6255668;27;20929;-76
2024/01/18 05:06:16;;;;;;;10.30;6.18;;;;;;;;;;6244166;28;20086;-76
2024/01/18 05:09:18;;;;;;;8.25;5.47;;;;;;;;;;6286415;27;20148;-77
2024/01/18 05:12:22;;;;;;;12.90;7.78;;;;;;;;;;6236283;28;20469;-77
2024/01/18 05:15:25;;;;;;;11.70;8.38;;;;;;;;;;6259869;27;20045;-78
2024/01/18 05:18:28;;;;;;;8.90;5.97;;;;;;;;;;6295922;27;20060;-77
2024/01/18 05:21:32;;;;;;;8.60;5.90;;;;;;;;;;6255226;28;20562;-78
2024/01/18 05:24:34;;;;;;;12.05;7.22;;;;;;;;;;6271317;27;20598;-76
2024/01/18 05:27:38;;;;;;;9.65;6.18;;;;;;;;;;6250825;27;20120;-77
2024/01/18 05:30:41;;;;;;;9.90;6.70;;;;;;;;;;6259359;27;20044;-76
2024/01/18 05:33:43;;;;;;;9.70;7.13;;;;;;;;;;6239272;27;20049;-76
2024/01/18 05:36:46;;;;;;;8.65;5.15;;;;;;;;;;6251971;28;20037;-75
2024/01/18 05:39:51;;;;;;;8.25;5.63;;;;;;;;;;6265875;27;20042;-75
2024/01/18 05:42:53;;;;;;;12.07;6.32;;;;;;;;;;6255107;27;20451;-76
2024/01/18 05:45:56;;;;;;;11.55;6.88;;;;;;;;;;6237516;27;20057;-77
2024/01/18 05:48:59;;;;;;;9.13;5.68;;;;;;;;;;6246676;27;20049;-76
2024/01/18 05:52:03;;;;;;;11.75;5.72;;;;;;;;;;6255588;28;20047;-77
2024/01/18 05:55:05;;;;;;;14.43;9.35;;;;;;;;;;6265181;27;20045;-76
2024/01/18 05:58:07;;;;;;;12.57;8.75;;;;;;;;;;6256652;27;20062;-76
2024/01/18 06:01:10;;;;;;;15.25;9.80;;;;;;;;;;6245895;27;20037;-76
2024/01/18 06:04:13;;;;;;;10.63;7.72;;;;;;;;;;6252916;27;20041;-76
2024/01/18 06:07:15;;;;;;;12.38;9.63;;;;;;;;;;6244468;28;20060;-76
2024/01/18 06:10:17;;;;;;;14.13;8.30;;;;;;;;;;6240418;27;20173;-76
2024/01/18 06:13:21;;;;;;;21.75;10.30;;;;;;;;;;6258551;27;20503;-77
2024/01/18 06:16:26;;;;;;;20.55;12.80;;;;;;;;;;6265062;27;20045;-78
2024/01/18 06:19:28;;;;;;;18.83;12.30;;;;;;;;;;6337098;27;20800;-77
2024/01/18 06:22:30;;;;;;;16.05;9.55;;;;;;;;;;6250360;28;20041;-78
2024/01/18 06:25:32;;;;;;;11.25;8.52;;;;;;;;;;6254387;27;20048;-77
2024/01/18 06:28:35;;;;;;;12.40;8.05;;;;;;;;;;6229707;28;20887;-77
2024/01/18 06:31:37;;;;;;;8.80;5.88;;;;;;;;;;6251561;27;20154;-77
2024/01/18 06:34:39;;;;;;;23.42;14.95;;;;;;;;;;6271048;27;20090;-76
2024/01/18 06:37:42;;;;;;;23.30;15.48;;;;;;;;;;6257956;27;20050;-76
2024/01/18 06:40:44;;;;;;;40.22;20.10;;;;;;;;;;6260784;27;20041;-75
2024/01/18 06:43:49;;;;;;;20.52;10.75;;;;;;;;;;6280642;27;20113;-77
2024/01/18 06:46:52;;;;;;;8.93;6.80;;;;;;;;;;6241990;27;20537;-76
2024/01/18 06:49:55;;;;;;;17.08;10.02;;;;;;;;;;6252672;28;20068;-77
2024/01/18 06:52:59;;;;;;;13.38;7.82;;;;;;;;;;6237695;28;20136;-77
2024/01/18 06:56:01;;;;;;;9.55;6.82;;;;;;;;;;6256394;27;20423;-78
2024/01/18 06:59:05;;;;;;;10.40;5.88;;;;;;;;;;6310608;27;20469;-78
2024/01/18 07:02:07;;;;;;;10.60;6.95;;;;;;;;;;6255516;27;20063;-78
2024/01/18 07:05:10;;;;;;;11.10;6.85;;;;;;;;;;6239069;27;20049;-78
2024/01/18 07:08:13;;;;;;;13.40;8.88;;;;;;;;;;6244147;27;20048;-78
2024/01/18 07:11:15;;;;;;;13.68;8.45;;;;;;;;;;6250124;27;20047;-78
2024/01/18 07:14:18;;;;;;;18.75;9.27;;;;;;;;;;6248597;27;20052;-78
2024/01/18 07:17:20;;;;;;;22.75;13.57;;;;;;;;;;6295496;27;20046;-78
2024/01/18 07:20:22;;;;;;;19.33;11.38;;;;;;;;;;6242187;27;20071;-78
2024/01/18 07:23:24;;;;;;;13.55;9.38;;;;;;;;;;6254379;27;20054;-78
2024/01/18 07:26:27;;;;;;;10.20;7.95;;;;;;;;;;6254361;27;20141;-77
2024/01/18 07:29:29;;;;;;;14.57;7.32;;;;;;;;;;6264406;27;20113;-78
2024/01/18 07:32:33;;;;;;;13.18;7.85;;;;;;;;;;6258680;27;20956;-78
2024/01/18 07:35:36;;;;;;;8.88;6.22;;;;;;;;;;6240248;27;20132;-78
2024/01/18 07:38:38;;;;;;;11.68;5.53;;;;;;;;;;6254826;27;20555;-78
2024/01/18 07:41:40;;;;;;;9.40;5.85;;;;;;;;;;6253991;27;20096;-78
2024/01/18 07:44:44;;;;;;;10.20;6.20;;;;;;;;;;6227931;27;20045;-78
2024/01/18 07:47:46;;;;;;;8.88;5.32;;;;;;;;;;6243762;27;20046;-79
2024/01/18 07:50:49;;;;;;;6.70;4.50;;;;;;;;;;6235046;27;20052;-78
2024/01/18 07:53:51;;;;;;;9.23;5.10;;;;;;;;;;6216085;27;20049;-78
2024/01/18 07:56:55;;;;;;;8.55;5.13;;;;;;;;;;6250713;27;20527;-78
2024/01/18 07:59:57;;;;;;;9.05;5.80;;;;;;;;;;6251214;27;20117;-78
2024/01/18 08:02:59;;;;;;;8.00;5.10;;;;;;;;;;6259981;27;20325;-79
2024/01/18 08:06:02;;;;;;;8.35;4.53;;;;;;;;;;6244581;27;20091;-78
2024/01/18 08:09:05;;;;;;;6.85;4.15;;;;;;;;;;6267472;27;20044;-79
2024/01/18 08:12:07;;;;;;;8.43;3.92;;;;;;;;;;6252558;27;20064;-78
2024/01/18 08:15:12;;;;;;;8.85;4.90;;;;;;;;;;6286167;27;20147;-78
2024/01/18 08:18:16;;;;;;;8.70;3.53;;;;;;;;;;6286763;27;20127;-80
2024/01/18 08:21:18;;;;;;;5.32;3.10;;;;;;;;;;6271214;27;20045;-80
2024/01/18 08:24:21;;;;;;;8.60;4.40;;;;;;;;;;6279765;27;20041;-80
2024/01/18 08:27:29;;;;;;;8.02;4.30;;;;;;;;;;6273713;27;20624;-81
2024/01/18 08:30:33;;;;;;;7.13;4.38;;;;;;;;;;6258445;27;20404;-80
2024/01/18 08:33:35;;;;;;;6.53;4.35;;;;;;;;;;6253807;27;20048;-79
2024/01/18 08:36:38;;;;;;;5.28;3.47;;;;;;;;;;6254211;27;20041;-79
2024/01/18 08:39:41;;;;;;;8.68;4.40;;;;;;;;;;6239689;28;20048;-79
2024/01/18 08:42:45;;;;;;;5.20;2.95;;;;;;;;;;6249237;27;20049;-80
2024/01/18 08:45:49;;;;;;;6.40;3.10;;;;;;;;;;6251350;27;20037;-78
2024/01/18 08:48:53;;;;;;;5.53;3.15;;;;;;;;;;6255599;27;20082;-79
2024/01/18 08:51:55;;;;;;;5.75;2.45;;;;;;;;;;6253235;27;20051;-81
2024/01/18 08:54:58;;;;;;;7.03;4.55;;;;;;;;;;6236451;27;20053;-78
2024/01/18 08:58:00;;;;;;;5.70;3.75;;;;;;;;;;6256576;27;20045;-79
2024/01/18 09:01:03;;;;;;;8.68;4.43;;;;;;;;;;6256044;27;20030;-79
2024/01/18 09:04:06;;;;;;;7.18;3.75;;;;;;;;;;6235848;27;20037;-80
2024/01/18 09:07:10;;;;;;;8.05;4.25;;;;;;;;;;6253894;27;20052;-80
2024/01/18 09:10:13;;;;;;;7.93;4.18;;;;;;;;;;6238740;27;20056;-78
2024/01/18 09:13:15;;;;;;;7.78;4.40;;;;;;;;;;6254383;27;20044;-78
2024/01/18 09:16:21;;;;;;;6.57;4.15;;;;;;;;;;6272521;27;20579;-78
2024/01/18 09:19:30;;;;;;;7.25;5.22;;;;;;;;;;6251005;27;20140;-78
2024/01/18 09:22:32;;;;;;;6.90;4.25;;;;;;;;;;6251442;27;20052;-78
2024/01/18 09:25:36;;;;;;;6.55;4.80;;;;;;;;;;6244015;28;20610;-77
2024/01/18 09:28:38;;;;;;;7.53;4.32;;;;;;;;;;6254519;27;20483;-79
2024/01/18 09:31:40;;;;;;;10.05;4.65;;;;;;;;;;6248175;27;20427;-79
2024/01/18 09:34:49;;;;;;;8.57;6.50;;;;;;;;;;6245248;27;20516;-79
2024/01/18 09:37:51;;;;;;;8.40;4.85;;;;;;;;;;6260773;27;20811;-77
2024/01/18 09:41:01;;;;;;;10.63;5.32;;;;;;;;;;6269969;27;20037;-78
2024/01/18 09:44:05;;;;;;;6.90;4.75;;;;;;;;;;6263046;27;20051;-78
2024/01/18 09:47:07;;;;;;;9.35;5.68;;;;;;;;;;6229317;28;20045;-77
2024/01/18 09:50:10;;;;;;;6.82;4.20;;;;;;;;;;6248960;27;20515;-78
2024/01/18 09:53:13;;;;;;;7.55;4.97;;;;;;;;;;6249583;27;20118;-77
2024/01/18 09:56:22;;;;;;;7.25;4.72;;;;;;;;;;6233291;27;20527;-75
2024/01/18 09:59:25;;;;;;;6.15;4.03;;;;;;;;;;6240079;27;20070;-77
2024/01/18 10:02:28;;;;;;;5.10;3.45;;;;;;;;;;6245908;27;20053;-78
2024/01/18 10:05:31;;;;;;;5.60;3.53;;;;;;;;;;6278081;27;20064;-77
2024/01/18 10:08:33;;;;;;;6.75;3.38;;;;;;;;;;6248123;27;20046;-78
2024/01/18 10:11:40;;;;;;;5.35;3.60;;;;;;;;;;6232160;28;20053;-77
2024/01/18 10:14:43;;;;;;;6.03;3.78;;;;;;;;;;6222246;27;20510;-78
2024/01/18 10:17:47;;;;;;;8.45;4.10;;;;;;;;;;6236784;28;20053;-77
2024/01/18 10:20:50;;;;;;;7.43;4.45;;;;;;;;;;6277012;27;20046;-78
2024/01/18 10:23:54;;;;;;;6.00;4.38;;;;;;;;;;6239976;27;20048;-79
2024/01/18 10:27:03;;;;;;;21.73;11.77;;;;;;;;;;6226441;28;20177;-79
2024/01/18 10:30:08;;;;;;;17.05;8.95;;;;;;;;;;6269325;27;20048;-77
2024/01/18 10:33:12;;;;;;;19.70;11.95;;;;;;;;;;6266243;27;20355;-78
2024/01/18 10:36:15;;;;;;;8.00;5.05;;;;;;;;;;6229732;27;20816;-78
2024/01/18 10:39:18;;;;;;;7.88;4.72;;;;;;;;;;6243335;27;20041;-78
2024/01/18 10:42:21;;;;;;;9.48;4.05;;;;;;;;;;6228134;28;20053;-78
2024/01/18 10:45:27;;;;;;;6.25;3.38;;;;;;;;;;6241299;27;21100;-78
2024/01/18 10:48:29;;;;;;;;;;;;;;;;;;6244018;27;20045;-79
2024/01/18 10:51:31;;;;;;;5.25;2.97;;;;;;;;;;6249627;27;20020;-78
2024/01/18 10:54:34;;;;;;;7.20;3.20;;;;;;;;;;6252203;27;20056;-78
2024/01/18 10:57:40;;;;;;;6.63;3.20;;;;;;;;;;6231396;28;20766;-78
2024/01/18 11:00:43;;;;;;;10.60;5.75;;;;;;;;;;6269643;27;20099;-78
2024/01/18 11:03:46;;;;;;;3.65;2.45;;;;;;;;;;6244786;28;20044;-78
2024/01/18 11:06:48;;;;;;;9.15;5.13;;;;;;;;;;6242405;27;20050;-79
2024/01/18 11:09:52;;;;;;;5.50;4.05;;;;;;;;;;6246415;27;20052;-77
2024/01/18 11:12:54;;;;;;;4.18;2.05;;;;;;;;;;6261286;27;20045;-77
2024/01/18 11:15:56;;;;;;;6.88;3.33;;;;;;;;;;6257674;27;20510;-77
2024/01/18 11:19:02;;;;;;;5.03;4.47;;;;;;;;;;6228590;27;20083;-77
2024/01/18 11:22:04;;;;;;;10.05;4.40;;;;;;;;;;6244450;27;20545;-77
2024/01/18 11:25:09;;;;;;;5.93;4.53;;;;;;;;;;6241731;27;20047;-78
2024/01/18 11:28:22;;;;;;;17.60;8.73;;;;;;;;;;6263036;27;20052;-78
2024/01/18 11:31:50;;;;;;;56.67;28.20;;;;;;;;;;6254824;27;20143;-77
2024/01/18 11:35:07;;;;;;;14.63;9.10;;;;;;;;;;6252895;28;20109;-78
2024/01/18 11:38:20;;;;;;;8.90;4.63;;;;;;;;;;6255599;27;20789;-78
2024/01/18 11:41:24;;;;;;;31.55;18.58;;;;;;;;;;6252659;27;20045;-79
2024/01/18 11:44:26;;;;;;;11.57;7.80;;;;;;;;;;6265794;27;20051;-78
2024/01/18 11:47:33;;;;;;;8.27;5.55;;;;;;;;;;6260378;27;21007;-78
2024/01/18 11:50:35;;;;;;;8.43;4.95;;;;;;;;;;6233271;27;20037;-78
2024/01/18 11:53:37;;;;;;;8.95;5.40;;;;;;;;;;6247122;27;21296;-77
2024/01/18 11:56:40;;;;;;;10.73;4.82;;;;;;;;;;6248672;27;20079;-79
2024/01/18 11:59:46;;;;;;;7.20;4.22;;;;;;;;;;6232081;27;20071;-77
2024/01/18 12:02:48;;;;;;;6.80;4.05;;;;;;;;;;6240779;27;20057;-77
2024/01/18 12:05:51;;;;;;;10.90;5.80;;;;;;;;;;6286835;27;20539;-78
2024/01/18 12:08:53;;;;;;;7.68;4.55;;;;;;;;;;6236373;27;21024;-78
2024/01/18 12:11:56;;;;;;;9.05;4.80;;;;;;;;;;6244565;27;20038;-77
2024/01/18 12:14:59;;;;;;;9.27;5.68;;;;;;;;;;6259854;28;20033;-77
2024/01/18 12:18:02;;;;;;;7.85;4.35;;;;;;;;;;6213625;27;20598;-78
2024/01/18 12:21:04;;;;;;;5.63;2.60;;;;;;;;;;6233268;27;20060;-78
2024/01/18 12:24:07;;;;;;;6.97;2.60;;;;;;;;;;6250824;27;20038;-77
2024/01/18 12:27:09;;;;;;;10.00;2.72;;;;;;;;;;6244387;27;20041;-77
2024/01/18 12:30:13;;;;;;;6.47;2.25;;;;;;;;;;6242685;28;20692;-77
2024/01/18 12:33:16;;;;;;;3.75;1.75;;;;;;;;;;6271725;27;20510;-78
2024/01/18 12:36:19;;;;;;;3.63;1.50;;;;;;;;;;6256400;27;20117;-76
2024/01/18 12:39:21;;;;;;;6.13;1.98;;;;;;;;;;6257359;27;20146;-77
2024/01/18 12:42:24;;;;;;;5.93;2.10;;;;;;;;;;6249695;27;20046;-76
2024/01/18 12:45:27;;;;;;;2.50;1.80;;;;;;;;;;6244287;28;20133;-78
2024/01/18 12:48:29;;;;;;;4.63;1.45;;;;;;;;;;6230295;27;20539;-77
2024/01/18 12:51:35;;;;;;;4.28;1.92;;;;;;;;;;6228914;27;20577;-78
2024/01/18 12:54:38;;;;;;;4.88;2.13;;;;;;;;;;6258006;27;20065;-76
2024/01/18 12:57:40;;;;;;;4.20;1.70;;;;;;;;;;6244815;27;20502;-77
2024/01/18 13:00:49;;;;;;;3.78;1.33;;;;;;;;;;6246048;27;20084;-77
2024/01/18 13:04:14;;;;;;;6.97;1.25;;;;;;;;;;6257547;27;20041;-76
2024/01/18 13:07:17;;;;;;;7.30;1.90;;;;;;;;;;6263846;27;20045;-76
2024/01/18 13:10:20;;;;;;;5.75;1.98;;;;;;;;;;6246094;28;20056;-76
2024/01/18 13:13:23;;;;;;;2.80;2.05;;;;;;;;;;6242409;27;20125;-77
2024/01/18 13:16:28;;;;;;;7.78;2.15;;;;;;;;;;6250793;27;20542;-76
2024/01/18 13:19:30;;;;;;;7.07;2.35;;;;;;;;;;6246722;27;20049;-77
2024/01/18 13:22:33;;;;;;;5.13;2.00;;;;;;;;;;6236664;27;20107;-76
2024/01/18 13:25:36;;;;;;;5.63;2.22;;;;;;;;;;6227160;28;20201;-76
2024/01/18 13:28:38;;;;;;;6.38;2.10;;;;;;;;;;6249249;27;20045;-77
2024/01/18 13:31:41;;;;;;;4.25;2.63;;;;;;;;;;6246961;28;20105;-77
2024/01/18 13:34:43;;;;;;;6.68;2.53;;;;;;;;;;6223274;28;20101;-77
2024/01/18 13:37:45;;;;;;;5.47;1.40;;;;;;;;;;6248233;27;20045;-77
2024/01/18 13:40:47;;;;;;;4.75;1.58;;;;;;;;;;6261782;27;20087;-77
2024/01/18 13:43:49;;;;;;;3.60;1.70;;;;;;;;;;6232925;27;20082;-77
2024/01/18 13:46:52;;;;;;;4.55;2.45;;;;;;;;;;6244170;28;20052;-78
2024/01/18 13:49:54;;;;;;;2.78;1.55;;;;;;;;;;6248734;27;20048;-78
2024/01/18 13:52:57;;;;;;;4.05;1.73;;;;;;;;;;6228253;27;20046;-77
2024/01/18 13:56:00;;;;;;;3.55;2.85;;;;;;;;;;6244694;27;20049;-77
2024/01/18 13:59:02;;;;;;;5.65;1.48;;;;;;;;;;6233002;27;20625;-79
2024/01/18 14:02:05;;;;;;;4.78;2.33;;;;;;;;;;6248151;28;20853;-79
2024/01/18 14:05:07;;;;;;;5.40;2.80;;;;;;;;;;6256001;27;20819;-79
2024/01/18 14:08:12;;;;;;;4.07;2.08;;;;;;;;;;6223958;28;20053;-80
2024/01/18 14:11:16;;;;;;;2.88;1.60;;;;;;;;;;6212282;27;20122;-80
2024/01/18 14:14:18;;;;;;;5.50;2.10;;;;;;;;;;6260533;27;20065;-80
2024/01/18 14:17:20;;;;;;;3.28;1.70;;;;;;;;;;6230140;27;20041;-80
2024/01/18 14:20:23;;;;;;;21.88;9.65;;;;;;;;;;6272772;27;20050;-79
2024/01/18 14:23:28;;;;;;;2.70;1.50;;;;;;;;;;6249792;27;20041;-79
2024/01/18 14:26:30;;;;;;;6.45;2.45;;;;;;;;;;6249096;27;20144;-79
2024/01/18 14:29:32;;;;;;;7.00;2.33;;;;;;;;;;6250501;27;20056;-77
2024/01/18 14:32:36;;;;;;;12.27;5.18;;;;;;;;;;6231057;28;20494;-77
2024/01/18 14:35:38;;;;;;;6.70;3.33;;;;;;;;;;6325569;27;20045;-79
2024/01/18 14:38:40;;;;;;;6.78;4.35;;;;;;;;;;6256300;27;20100;-78
2024/01/18 14:41:43;;;;;;;3.60;1.60;;;;;;;;;;6280463;27;20395;-78
2024/01/18 14:44:48;;;;;;;4.18;1.70;;;;;;;;;;6235405;27;20193;-77
2024/01/18 14:47:50;;;;;;;6.57;1.83;;;;;;;;;;6265552;27;20842;-78
2024/01/18 14:50:53;;;;;;;8.88;3.80;;;;;;;;;;6254100;27;20047;-78
2024/01/18 14:53:55;;;;;;;7.53;3.72;;;;;;;;;;6270644;27;20080;-79
2024/01/18 14:56:57;;;;;;;5.25;2.67;;;;;;;;;;6250924;27;20057;-79
2024/01/18 15:00:00;;;;;;;5.85;1.50;;;;;;;;;;6243769;27;20041;-78
2024/01/18 15:03:04;;;;;;;7.53;2.90;;;;;;;;;;6218503;27;20057;-78
2024/01/18 15:06:06;;;;;;;5.07;1.75;;;;;;;;;;6252466;27;20614;-79
2024/01/18 15:09:09;;;;;;;5.35;2.75;;;;;;;;;;6237373;27;20080;-79
2024/01/18 15:12:12;;;;;;;4.30;2.35;;;;;;;;;;6255399;27;20044;-79
2024/01/18 15:15:14;;;;;;;6.57;2.83;;;;;;;;;;6226201;27;21150;-77
2024/01/18 15:18:16;;;;;;;6.90;3.30;;;;;;;;;;6266319;27;20046;-79
2024/01/18 15:21:18;;;;;;;12.38;7.38;;;;;;;;;;6249200;27;20472;-78
2024/01/18 15:24:20;;;;;;;3.80;2.20;;;;;;;;;;6243409;27;20757;-78
2024/01/18 15:27:23;;;;;;;6.10;3.03;;;;;;;;;;6249051;27;20053;-78
2024/01/18 15:30:25;;;;;;;5.20;2.53;;;;;;;;;;6249469;27;20064;-77
2024/01/18 15:33:29;;;;;;;4.90;2.30;;;;;;;;;;6249949;27;20538;-78
2024/01/18 15:36:33;;;;;;;4.30;2.20;;;;;;;;;;6249142;27;20040;-78
2024/01/18 15:39:36;;;;;;;6.47;2.17;;;;;;;;;;6245956;28;20045;-78
2024/01/18 15:42:38;;;;;;;4.97;2.03;;;;;;;;;;6246476;28;20049;-77
2024/01/18 15:45:43;;;;;;;8.15;3.22;;;;;;;;;;6245802;27;20133;-79
2024/01/18 15:48:45;;;;;;;7.35;3.63;;;;;;;;;;6232249;27;20064;-78
2024/01/18 15:51:48;;;;;;;6.88;3.35;;;;;;;;;;6257916;27;20045;-79
2024/01/18 15:54:53;;;;;;;10.43;4.45;;;;;;;;;;6261585;27;20072;-78
2024/01/18 15:57:55;;;;;;;7.35;3.47;;;;;;;;;;6252650;27;20488;-77
2024/01/18 16:00:58;;;;;;;8.20;4.00;;;;;;;;;;6233014;27;20052;-77
2024/01/18 16:04:00;;;;;;;12.07;4.07;;;;;;;;;;6239221;28;20036;-76
2024/01/18 16:07:02;;;;;;;12.95;3.55;;;;;;;;;;6240943;27;20565;-78
2024/01/18 16:10:09;;;;;;;7.40;2.55;;;;;;;;;;6259495;27;20078;-76
2024/01/18 16:13:13;;;;;;;7.32;3.13;;;;;;;;;;6228429;27;20041;-78
2024/01/18 16:16:15;;;;;;;9.48;4.75;;;;;;;;;;6241588;27;20665;-78
2024/01/18 16:19:18;;;;;;;13.20;5.18;;;;;;;;;;6241716;27;20041;-77
2024/01/18 16:22:21;;;;;;;4.75;2.00;;;;;;;;;;6256242;27;20113;-77
2024/01/18 16:25:24;;;;;;;7.97;3.58;;;;;;;;;;6250243;27;20041;-77
2024/01/18 16:28:27;;;;;;;5.57;2.75;;;;;;;;;;6261982;27;20440;-78
2024/01/18 16:31:30;;;;;;;4.70;2.45;;;;;;;;;;6208531;28;20077;-79
2024/01/18 16:34:33;;;;;;;3.88;1.55;;;;;;;;;;6244708;27;20065;-78
2024/01/18 16:37:35;;;;;;;6.25;2.80;;;;;;;;;;6249562;27;20053;-78
2024/01/18 16:40:39;;;;;;;15.00;6.63;;;;;;;;;;6248223;28;20113;-78
2024/01/18 16:43:44;;;;;;;12.85;7.93;;;;;;;;;;6221625;27;20573;-78
2024/01/18 16:46:46;;;;;;;13.38;6.03;;;;;;;;;;6247639;27;20038;-78
2024/01/18 16:49:48;;;;;;;9.57;3.72;;;;;;;;;;6228048;28;20059;-77
2024/01/18 16:52:51;;;;;;;6.75;4.05;;;;;;;;;;6247465;27;20110;-78
2024/01/18 16:55:53;;;;;;;8.50;3.65;;;;;;;;;;6251179;27;20079;-78
2024/01/18 16:58:55;;;;;;;9.40;5.75;;;;;;;;;;6253982;27;20071;-78
2024/01/18 17:01:58;;;;;;;9.68;5.95;;;;;;;;;;6208936;28;20062;-75
2024/01/18 17:05:00;;;;;;;9.57;6.18;;;;;;;;;;6230311;28;20533;-75
2024/01/18 17:08:05;;;;;;;30.30;15.95;;;;;;;;;;6242553;27;20199;-74
2024/01/18 17:11:11;;;;;;;18.45;11.10;;;;;;;;;;6246388;27;20053;-77
2024/01/18 17:14:21;;;;;;;17.13;9.55;;;;;;;;;;6225323;27;20069;-76
2024/01/18 17:17:29;;;;;;;14.30;9.02;;;;;;;;;;6256867;27;20112;-78
2024/01/18 17:20:37;;;;;;;24.23;17.75;;;;;;;;;;6234888;27;20044;-76
2024/01/18 17:23:39;;;;;;;8.68;4.32;;;;;;;;;;6267850;27;20043;-78
2024/01/18 17:26:42;;;;;;;51.55;36.00;;;;;;;;;;6217490;27;20522;-75
2024/01/18 17:29:45;;;;;;;22.65;12.32;;;;;;;;;;6246020;27;21961;-74
2024/01/18 17:32:52;;;;;;;7.28;4.35;;;;;;;;;;6249015;27;20048;-75
2024/01/18 17:35:54;;;;;;;4.75;2.83;;;;;;;;;;6246357;27;20071;-76
2024/01/18 17:38:56;;;;;;;4.13;2.15;;;;;;;;;;6239440;27;20492;-77
2024/01/18 17:42:00;;;;;;;7.03;2.00;;;;;;;;;;6269007;27;20738;-77
2024/01/18 17:45:02;;;;;;;6.72;2.40;;;;;;;;;;6237999;27;20049;-75
2024/01/18 17:48:06;;;;;;;7.63;2.38;;;;;;;;;;6299126;27;20107;-75
2024/01/18 17:51:09;;;;;;;11.32;4.85;;;;;;;;;;6252173;27;20044;-75
2024/01/18 17:54:11;;;;;;;8.90;3.65;;;;;;;;;;6263124;27;20044;-76
2024/01/18 17:57:14;;;;;;;6.38;2.80;;;;;;;;;;6233316;27;20073;-77
2024/01/18 18:00:16;;;;;;;7.70;5.43;;;;;;;;;;6232069;27;20053;-76
2024/01/18 18:03:31;;;;;;;7.30;3.95;;;;;;;;;;6240783;28;20452;-78
2024/01/18 18:06:34;;;;;;;7.07;4.30;;;;;;;;;;6277677;27;20049;-78
2024/01/18 18:09:36;;;;;;;15.52;8.57;;;;;;;;;;6242520;27;20048;-79
2024/01/18 18:12:39;;;;;;;8.05;4.60;;;;;;;;;;6244750;27;20045;-77